P/v Golden Gate — WDE5665 — position and weather

sailwx.info

Track history (hours):
 
Tides and Currents Weather Stations Pressure Air Temp Water Temp Dewpoint Dewpoint Depression Visibility Wind Speed Wind Dir Waves Ship Positions

P/v Golden Gate

Owner: San Francisco Bar Pilots Benevolent and Protective, San Francisco, CA. More information available from US FCC via Universal Licensing System and Coast Guard Vessel Documentation Center.

Last reported at 2017-Dec-11 17:00 UTC. Time now 2017-Dec-12 21:57 UTC.
Position N 37°48' W 122°18'.

Length 21 m.

Type: Pilot. MMSI: 367370010.

Date/timePositionNaut miles runAvg speedWind from/ knotsBaromVisibWave heightAir tempDewpointWater temp
2017-Dec-11 17:00N 37°48' W 122°18'4 8.2
2017-Dec-11 16:30N 37°48' W 122°24'2 3.3
2017-Dec-11 16:00N 37°48' W 122°22'2 3.4
2017-Dec-11 15:30N 37°47' W 122°21'1 2.7
2017-Dec-11 15:00N 37°48' W 122°21'2 4.2
2017-Dec-11 14:30N 37°48' W 122°18'4 7.9
2017-Dec-11 14:00N 37°48' W 122°23'1 1.5
2017-Dec-11 13:30N 37°48' W 122°24'1 2.6
2017-Dec-11 13:01N 37°49' W 122°25'0 0.1
2017-Dec-11 12:30N 37°49' W 122°25'5 9.9
2017-Dec-11 12:01N 37°48' W 122°31'713.1
2017-Dec-11 11:27N 37°46' W 122°40'920.1
2017-Dec-11 11:00N 37°49' W 122°29'713.6
2017-Dec-11 10:31N 37°48' W 122°21'2 4.1
2017-Dec-11 10:00N 37°47' W 122°23'1 2.3
2017-Dec-11 09:30N 37°48' W 122°24'3 5.8
2017-Dec-11 09:01N 37°49' W 122°27'3 5.5
2017-Dec-11 08:30N 37°48' W 122°24'0 0.0
2017-Dec-11 08:00N 37°48' W 122°24'0 0.0
2017-Dec-11 07:30N 37°48' W 122°24'0 0.0
2017-Dec-11 07:00N 37°48' W 122°24'0 0.0
2017-Dec-11 06:30N 37°48' W 122°24'0 0.0
2017-Dec-11 06:00N 37°48' W 122°24'0 0.0
2017-Dec-11 05:30N 37°48' W 122°24'3 6.0
2017-Dec-11 05:01N 37°46' W 122°21'2 4.0
2017-Dec-11 04:31N 37°44' W 122°21'0 0.8
2017-Dec-11 04:00N 37°44' W 122°20'1 1.3
2017-Dec-11 03:31N 37°44' W 122°20'5 9.8
2017-Dec-11 03:00N 37°49' W 122°20'0 0.0
2017-Dec-11 02:30N 37°49' W 122°20'2 4.7
2017-Dec-11 02:01N 37°48' W 122°23'0 0.7
2017-Dec-11 01:30N 37°48' W 122°23'1 1.1
2017-Dec-11 01:01N 37°48' W 122°24'0 0.0
2017-Dec-11 00:31N 37°48' W 122°24'0 0.0
2017-Dec-11 00:00N 37°48' W 122°24'0 0.0
2017-Dec-10 23:30N 37°48' W 122°24'2 3.4
2017-Dec-10 23:01N 37°49' W 122°26'510.6
2017-Dec-10 22:30N 37°48' W 122°32'917.4
2017-Dec-10 22:01N 37°48' W 122°21'2 4.0
2017-Dec-10 21:30N 37°48' W 122°24'0 0.0
2017-Dec-10 21:01N 37°48' W 122°24'0 0.0
2017-Dec-10 20:30N 37°48' W 122°24'0 0.0
2017-Dec-10 20:01N 37°48' W 122°24'2 4.7
2017-Dec-10 19:30N 37°48' W 122°21'613.0
2017-Dec-10 19:01N 37°49' W 122°29'1019.4
2017-Dec-10 18:29N 37°46' W 122°41'613.1
2017-Dec-10 18:00N 37°47' W 122°33'815.4
2017-Dec-10 17:31N 37°48' W 122°24'0 0.0
2017-Dec-10 17:00N 37°48' W 122°24'0 0.0
2017-Dec-10 16:30N 37°48' W 122°24'713.5
2017-Dec-10 16:01N 37°48' W 122°32'4 8.6
2017-Dec-10 15:29N 37°46' W 122°37'1122.0
2017-Dec-10 15:00N 37°49' W 122°24'3 6.3
2017-Dec-10 14:30N 37°48' W 122°21'3 5.1
2017-Dec-10 14:01N 37°48' W 122°24'0 0.0
2017-Dec-10 13:31N 37°48' W 122°24'0 0.0
2017-Dec-10 13:00N 37°48' W 122°24'0 0.0
2017-Dec-10 12:31N 37°48' W 122°24'0 0.4
2017-Dec-10 12:00N 37°48' W 122°24'4 7.7
2017-Dec-10 11:30N 37°45' W 122°20'1 1.0
2017-Dec-10 11:01N 37°45' W 122°21'5 9.7
2017-Dec-10 10:30N 37°49' W 122°24'815.5
2017-Dec-10 10:00N 37°47' W 122°34'816.4
2017-Dec-10 09:30N 37°48' W 122°24'1 2.2
2017-Dec-10 09:00N 37°48' W 122°22'1 2.2
2017-Dec-10 08:31N 37°48' W 122°24'1 2.0
2017-Dec-10 08:00N 37°48' W 122°23'1 2.0
2017-Dec-10 07:30N 37°48' W 122°24'0 0.0
2017-Dec-10 07:01N 37°48' W 122°24'0 0.0
2017-Dec-10 06:30N 37°48' W 122°24'1 1.7
2017-Dec-10 06:00N 37°49' W 122°24'1 1.7
2017-Dec-10 05:30N 37°48' W 122°24'0 0.0
2017-Dec-10 05:00N 37°48' W 122°24'0 0.0
2017-Dec-10 04:30N 37°48' W 122°24'0 0.0
2017-Dec-10 04:00N 37°48' W 122°24'0 0.0
2017-Dec-10 03:30N 37°48' W 122°24'0 0.0
2017-Dec-10 03:00N 37°48' W 122°24'0 0.0
2017-Dec-10 02:30N 37°48' W 122°24'0 0.0
2017-Dec-10 02:00N 37°48' W 122°24'0 0.0
2017-Dec-10 01:30N 37°48' W 122°24'0 0.0
2017-Dec-10 01:00N 37°48' W 122°24'0 0.0
2017-Dec-10 00:30N 37°48' W 122°24'0 0.0
2017-Dec-10 00:00N 37°48' W 122°24'0 0.0
2017-Dec-09 23:30N 37°48' W 122°24'0 0.0
2017-Dec-09 23:00N 37°48' W 122°24'4 7.4
2017-Dec-09 22:31N 37°45' W 122°21'4 7.4
2017-Dec-09 22:00N 37°48' W 122°24'0 0.0
2017-Dec-09 21:30N 37°48' W 122°24'0 0.0
2017-Dec-09 21:00N 37°48' W 122°24'1 2.5
2017-Dec-09 20:31N 37°49' W 122°25'1 2.4
2017-Dec-09 20:00N 37°48' W 122°24'3 6.0
2017-Dec-09 19:31N 37°50' W 122°26'3 5.6
2017-Dec-09 19:01N 37°48' W 122°24'3 6.7
2017-Dec-09 18:30N 37°48' W 122°20'2 4.5
2017-Dec-09 18:00N 37°47' W 122°22'2 3.3
2017-Dec-09 17:30N 37°48' W 122°24'0 0.0
2017-Dec-09 17:00N 37°48' W 122°24'0 0.0
2017-Dec-09 16:30N 37°48' W 122°24'0 0.0
2017-Dec-09 16:00N 37°48' W 122°24'0 0.0
2017-Dec-09 15:30N 37°48' W 122°24'3 5.2
2017-Dec-09 15:00N 37°48' W 122°21'1 2.8
2017-Dec-09 14:31N 37°48' W 122°19'4 7.8
2017-Dec-09 14:00N 37°48' W 122°24'0 0.0
2017-Dec-09 13:30N 37°48' W 122°24'0 0.0
2017-Dec-09 13:00N 37°48' W 122°24'2 4.2
2017-Dec-09 12:30N 37°48' W 122°21'2 4.2
2017-Dec-09 12:00N 37°48' W 122°24'4 8.3
2017-Dec-09 11:30N 37°45' W 122°20'4 8.2
2017-Dec-09 11:00N 37°48' W 122°24'0 0.0
2017-Dec-09 10:30N 37°48' W 122°24'0 0.0
2017-Dec-09 10:00N 37°48' W 122°24'0 0.0
2017-Dec-09 09:30N 37°48' W 122°24'0 0.0
2017-Dec-09 09:00N 37°48' W 122°24'0 0.0
2017-Dec-09 08:30N 37°48' W 122°24'3 6.1
2017-Dec-09 08:00N 37°49' W 122°27'3 6.1
2017-Dec-09 07:30N 37°48' W 122°24'0 0.0
2017-Dec-09 07:00N 37°48' W 122°24'0 0.0
2017-Dec-09 06:30N 37°48' W 122°24'0 0.0
2017-Dec-09 06:00N 37°48' W 122°24'3 6.9
2017-Dec-09 05:30N 37°45' W 122°21'3 7.0
2017-Dec-09 05:00N 37°48' W 122°24'0 0.0
2017-Dec-09 04:30N 37°48' W 122°24'0 0.0
2017-Dec-09 04:00N 37°48' W 122°24'0 0.0
2017-Dec-09 03:30N 37°48' W 122°24'0 0.0
2017-Dec-09 03:00N 37°48' W 122°24'2 4.4
2017-Dec-09 02:31N 37°47' W 122°21'2 3.9
2017-Dec-09 02:00N 37°49' W 122°20'3 5.9
2017-Dec-09 01:31N 37°46' W 122°21'3 6.6
2017-Dec-09 01:00N 37°48' W 122°24'0 0.0
2017-Dec-09 00:30N 37°48' W 122°24'0 0.0
2017-Dec-09 00:01N 37°48' W 122°24'4 8.1
2017-Dec-08 23:30N 37°45' W 122°20'3 6.0
2017-Dec-08 23:01N 37°48' W 122°18'4 8.6
2017-Dec-08 22:30N 37°48' W 122°24'0 0.0
2017-Dec-08 22:00N 37°48' W 122°24'0 0.0
2017-Dec-08 21:30N 37°48' W 122°24'0 0.0
2017-Dec-08 21:00N 37°48' W 122°24'0 0.0
2017-Dec-08 20:30N 37°48' W 122°24'0 0.0
2017-Dec-08 20:00N 37°48' W 122°24'2 4.7
2017-Dec-08 19:31N 37°48' W 122°21'2 4.6
2017-Dec-08 19:00N 37°48' W 122°24'0 0.0
2017-Dec-08 18:30N 37°48' W 122°24'2 4.2
2017-Dec-08 18:01N 37°46' W 122°22'3 6.4
2017-Dec-08 17:30N 37°49' W 122°25'2 3.1
2017-Dec-08 17:00N 37°49' W 122°27'1121.9
2017-Dec-08 16:30N 37°45' W 122°40'1223.9
2017-Dec-08 16:01N 37°49' W 122°26'0 1.0
2017-Dec-08 15:30N 37°49' W 122°25'4 8.5
2017-Dec-08 15:00N 37°49' W 122°20'3 5.8
2017-Dec-08 14:31N 37°46' W 122°21'3 6.3
2017-Dec-08 14:00N 37°48' W 122°24'0 0.0
2017-Dec-08 13:31N 37°48' W 122°24'0 0.0
2017-Dec-08 13:01N 37°48' W 122°24'3 5.2
2017-Dec-08 12:30N 37°49' W 122°27'3 5.2
2017-Dec-08 12:01N 37°48' W 122°24'1019.2
2017-Dec-08 11:31N 37°46' W 122°36'2 3.8
2017-Dec-08 11:00N 37°47' W 122°34'918.5
2017-Dec-08 10:31N 37°48' W 122°22'1 2.9
2017-Dec-08 10:00N 37°48' W 122°24'0 0.0
2017-Dec-08 09:31N 37°48' W 122°24'0 0.0
2017-Dec-08 09:00N 37°48' W 122°24'2 4.6
2017-Dec-08 08:31N 37°47' W 122°22'2 4.6
2017-Dec-08 08:00N 37°48' W 122°24'713.3
2017-Dec-08 07:31N 37°48' W 122°32'3 6.2
2017-Dec-08 07:00N 37°47' W 122°36'1019.3
2017-Dec-08 06:30N 37°48' W 122°24'0 0.0
2017-Dec-08 06:00N 37°48' W 122°24'0 0.0
2017-Dec-08 05:30N 37°48' W 122°24'0 0.0
2017-Dec-08 05:00N 37°48' W 122°24'0 0.0
2017-Dec-08 04:30N 37°48' W 122°24'4 7.3
2017-Dec-08 04:01N 37°45' W 122°21'4 7.3
2017-Dec-08 03:30N 37°48' W 122°24'0 0.0
2017-Dec-08 03:00N 37°48' W 122°24'2 5.0
2017-Dec-08 02:31N 37°46' W 122°21'2 5.0
2017-Dec-08 02:00N 37°48' W 122°24'0 0.0
2017-Dec-08 01:31N 37°48' W 122°24'0 0.0
2017-Dec-08 01:01N 37°48' W 122°24'0 0.0
2017-Dec-08 00:30N 37°48' W 122°24'0 0.0
2017-Dec-08 00:01N 37°48' W 122°24'0 0.0
2017-Dec-07 23:30N 37°48' W 122°24'0 0.0
2017-Dec-07 23:00N 37°48' W 122°24'1 2.3
2017-Dec-07 22:31N 37°49' W 122°22'0 0.7
2017-Dec-07 22:01N 37°48' W 122°22'1 2.2
2017-Dec-07 21:30N 37°48' W 122°24'0 0.0
2017-Dec-07 21:00N 37°48' W 122°24'0 0.0
2017-Dec-07 20:30N 37°48' W 122°24'0 0.4
2017-Dec-07 20:01N 37°48' W 122°24'4 7.0
2017-Dec-07 19:30N 37°50' W 122°27'3 6.8
2017-Dec-07 19:00N 37°48' W 122°24'0 0.0
2017-Dec-07 18:30N 37°48' W 122°24'0 0.0
2017-Dec-07 18:00N 37°48' W 122°24'0 0.0
2017-Dec-07 17:30N 37°48' W 122°24'0 0.0
2017-Dec-07 17:00N 37°48' W 122°24'1 2.5
2017-Dec-07 16:30N 37°49' W 122°25'1 2.4
2017-Dec-07 16:00N 37°48' W 122°24'0 0.0
2017-Dec-07 15:30N 37°48' W 122°24'0 0.0
2017-Dec-07 15:00N 37°48' W 122°24'0 0.0
2017-Dec-07 14:30N 37°48' W 122°24'0 0.0
2017-Dec-07 14:00N 37°48' W 122°24'5 9.3
2017-Dec-07 13:30N 37°48' W 122°30'4 7.4
2017-Dec-07 12:56N 37°47' W 122°35'920.3
2017-Dec-07 12:30N 37°48' W 122°24'0 0.0
2017-Dec-07 12:00N 37°48' W 122°24'0 0.0
2017-Dec-07 11:30N 37°48' W 122°24'0 0.0
2017-Dec-07 11:00N 37°48' W 122°24'0 0.0
2017-Dec-07 10:30N 37°48' W 122°24'0 0.0
2017-Dec-07 10:00N 37°48' W 122°24'0 0.0
2017-Dec-07 09:30N 37°48' W 122°24'0 0.0
2017-Dec-07 09:00N 37°48' W 122°24'0 0.0
2017-Dec-07 08:30N 37°48' W 122°24'0 0.0
2017-Dec-07 08:00N 37°48' W 122°24'0 0.0
2017-Dec-07 07:30N 37°48' W 122°24'0 0.0
2017-Dec-07 07:00N 37°48' W 122°24'0 0.0
2017-Dec-07 06:30N 37°48' W 122°24'0 0.0
2017-Dec-07 06:00N 37°48' W 122°24'0 0.1
2017-Dec-07 05:31N 37°48' W 122°24'1020.8
2017-Dec-07 05:00N 37°46' W 122°37'715.0
2017-Dec-07 04:31N 37°49' W 122°28'4 7.1
2017-Dec-07 04:00N 37°48' W 122°24'1 3.0
2017-Dec-07 03:30N 37°48' W 122°22'4 7.8
2017-Dec-07 03:01N 37°49' W 122°27'3 5.1
2017-Dec-07 02:30N 37°48' W 122°24'0 0.0
2017-Dec-07 02:01N 37°48' W 122°24'0 0.0
2017-Dec-07 01:30N 37°48' W 122°24'3 6.9
2017-Dec-07 01:00N 37°48' W 122°19'3 6.9
2017-Dec-07 00:30N 37°48' W 122°24'510.8
2017-Dec-07 00:00N 37°44' W 122°20'510.0
2017-Dec-06 23:30N 37°49' W 122°20'3 6.6
2017-Dec-06 23:01N 37°48' W 122°24'2 4.1
2017-Dec-06 22:30N 37°46' W 122°22'2 4.2
2017-Dec-06 22:01N 37°48' W 122°24'0 0.0
2017-Dec-06 21:31N 37°48' W 122°24'5 9.8
2017-Dec-06 21:00N 37°49' W 122°30'  
2017-Dec-04 10:31N 37°48' W 122°24'0 0.0
2017-Dec-04 10:00N 37°48' W 122°24'0 0.0
2017-Dec-04 09:31N 37°48' W 122°24'0 0.0
2017-Dec-04 09:00N 37°48' W 122°24'4 8.3
2017-Dec-04 08:31N 37°44' W 122°21'4 7.7
2017-Dec-04 08:01N 37°48' W 122°22'3 5.0
2017-Dec-04 07:30N 37°46' W 122°21'3 6.1
2017-Dec-04 07:00N 37°48' W 122°24'2 4.7
2017-Dec-04 06:30N 37°47' W 122°21'2 4.7
2017-Dec-04 06:00N 37°48' W 122°24'0 0.0
2017-Dec-04 05:30N 37°48' W 122°24'0 0.0
2017-Dec-04 05:00N 37°48' W 122°24'0 0.0
2017-Dec-04 04:30N 37°48' W 122°24'1 2.4
2017-Dec-04 04:00N 37°49' W 122°25'1 2.4
2017-Dec-04 03:30N 37°48' W 122°24'0 0.0
2017-Dec-04 03:00N 37°48' W 122°24'0 0.0
2017-Dec-04 02:30N 37°48' W 122°24'0 0.0
2017-Dec-04 02:00N 37°48' W 122°24'4 8.4
2017-Dec-04 01:31N 37°45' W 122°20'4 8.4
2017-Dec-04 01:00N 37°48' W 122°24'510.6
2017-Dec-04 00:31N 37°44' W 122°20'510.5
2017-Dec-04 00:00N 37°48' W 122°24'0 0.0
2017-Dec-03 23:30N 37°48' W 122°24'0 0.0
2017-Dec-03 23:00N 37°48' W 122°24'0 0.0
2017-Dec-03 22:30N 37°48' W 122°24'0 0.0
2017-Dec-03 22:00N 37°48' W 122°24'0 0.0
2017-Dec-03 21:30N 37°48' W 122°24'0 0.8
2017-Dec-03 21:01N 37°48' W 122°23'1 2.1
2017-Dec-03 20:30N 37°48' W 122°22'0 0.8
2017-Dec-03 20:01N 37°47' W 122°22'1 2.6
2017-Dec-03 19:31N 37°46' W 122°21'3 6.6
2017-Dec-03 19:01N 37°49' W 122°24'1 2.1
2017-Dec-03 18:23N 37°48' W 122°26'411.3
2017-Dec-03 18:00N 37°46' W 122°21'3 5.4
2017-Dec-03 17:30N 37°48' W 122°24'0 0.0
2017-Dec-03 17:00N 37°48' W 122°24'0 0.0
2017-Dec-03 16:30N 37°48' W 122°24'3 6.3
2017-Dec-03 16:00N 37°49' W 122°20'1 1.6
2017-Dec-03 15:30N 37°48' W 122°20'2 4.9
2017-Dec-03 15:01N 37°47' W 122°22'2 3.1
2017-Dec-03 14:31N 37°48' W 122°21'3 7.0
2017-Dec-03 14:00N 37°49' W 122°25'3 5.0
2017-Dec-03 13:30N 37°48' W 122°22'2 4.0
2017-Dec-03 13:01N 37°46' W 122°22'1 2.9
2017-Dec-03 12:31N 37°45' W 122°20'3 6.7
2017-Dec-03 12:01N 37°48' W 122°23'2 4.7
2017-Dec-03 11:31N 37°46' W 122°22'3 5.3
2017-Dec-03 11:00N 37°48' W 122°24'0 0.0
2017-Dec-03 10:31N 37°48' W 122°24'3 6.2
2017-Dec-03 10:01N 37°46' W 122°21'3 6.1
2017-Dec-03 09:30N 37°48' W 122°24'4 7.1
2017-Dec-03 09:00N 37°46' W 122°20'2 4.9
2017-Dec-03 08:30N 37°47' W 122°23'1 2.1
2017-Dec-03 08:01N 37°48' W 122°24'5 9.5
2017-Dec-03 07:31N 37°44' W 122°20'1 2.0
2017-Dec-03 07:00N 37°45' W 122°20'4 8.8
2017-Dec-03 06:30N 37°49' W 122°24'1 1.0
2017-Dec-03 06:01N 37°48' W 122°24'0 0.0
2017-Dec-03 05:30N 37°48' W 122°24'0 0.0
2017-Dec-03 05:00N 37°48' W 122°24'3 6.5
2017-Dec-03 04:30N 37°45' W 122°21'3 5.3
2017-Dec-03 04:01N 37°48' W 122°23'1 1.9
2017-Dec-03 03:31N 37°48' W 122°24'0 0.0
2017-Dec-03 03:00N 37°48' W 122°24'1 2.7
2017-Dec-03 02:31N 37°49' W 122°24'2 4.0
2017-Dec-03 02:00N 37°48' W 122°22'3 6.4
2017-Dec-03 01:30N 37°45' W 122°21'1 1.1
2017-Dec-03 01:00N 37°45' W 122°21'4 8.4
2017-Dec-03 00:31N 37°48' W 122°23'1 1.1
2017-Dec-03 00:00N 37°48' W 122°24'1 1.2
2017-Dec-02 23:30N 37°48' W 122°23'1 1.2
2017-Dec-02 23:00N 37°48' W 122°24'0 0.0
2017-Dec-02 22:31N 37°48' W 122°24'0 0.0
2017-Dec-02 22:00N 37°48' W 122°24'0 0.0
2017-Dec-02 21:30N 37°48' W 122°24'0 0.0
2017-Dec-02 21:00N 37°48' W 122°24'2 3.1
2017-Dec-02 20:31N 37°48' W 122°22'3 5.3
2017-Dec-02 20:01N 37°46' W 122°22'1 2.3
2017-Dec-02 19:31N 37°45' W 122°21'5 9.4
2017-Dec-02 19:00N 37°49' W 122°24'1 1.8
2017-Dec-02 18:27N 37°49' W 122°25'613.0
2017-Dec-02 18:00N 37°46' W 122°18'1 1.1
2017-Dec-02 17:31N 37°46' W 122°19'2 4.7
2017-Dec-02 17:00N 37°49' W 122°20'4 8.0
2017-Dec-02 16:31N 37°45' W 122°20'3 6.7
2017-Dec-02 16:01N 37°48' W 122°20'611.6
2017-Dec-02 15:31N 37°49' W 122°27'3 5.9
2017-Dec-02 15:00N 37°48' W 122°24'2 3.5
2017-Dec-02 14:31N 37°48' W 122°22'3 5.1
2017-Dec-02 14:00N 37°48' W 122°18'0 0.9
2017-Dec-02 13:30N 37°48' W 122°18'0 0.8
2017-Dec-02 13:00N 37°48' W 122°18'5 9.8
2017-Dec-02 12:31N 37°49' W 122°24'2 4.5
2017-Dec-02 12:00N 37°49' W 122°27'1121.9
2017-Dec-02 11:29N 37°44' W 122°41'1020.0
2017-Dec-02 11:01N 37°49' W 122°30'5 9.3
2017-Dec-02 10:30N 37°48' W 122°24'0 0.0
2017-Dec-02 10:00N 37°48' W 122°24'0 0.0
2017-Dec-02 09:30N 37°48' W 122°24'2 4.6
2017-Dec-02 09:01N 37°46' W 122°22'1 1.8
2017-Dec-02 08:30N 37°46' W 122°21'3 6.3
2017-Dec-02 08:00N 37°48' W 122°24'0 0.0
2017-Dec-02 07:30N 37°48' W 122°24'0 0.0
2017-Dec-02 07:00N 37°48' W 122°24'0 0.0
2017-Dec-02 06:30N 37°48' W 122°24'0 0.0
2017-Dec-02 06:00N 37°48' W 122°24'0 0.0
2017-Dec-02 05:30N 37°48' W 122°24'3 5.8
2017-Dec-02 05:00N 37°49' W 122°20'1 2.7
2017-Dec-02 04:31N 37°47' W 122°21'3 5.1
2017-Dec-02 04:01N 37°48' W 122°24'5 9.2
2017-Dec-02 03:30N 37°44' W 122°21'4 8.0
2017-Dec-02 03:00N 37°48' W 122°21'1 2.2
2017-Dec-02 02:31N 37°48' W 122°20'2 4.3
2017-Dec-02 02:00N 37°46' W 122°21'2 3.4
2017-Dec-02 01:31N 37°47' W 122°21'2 3.9
2017-Dec-02 01:00N 37°48' W 122°24'0 0.0
2017-Dec-02 00:30N 37°48' W 122°24'0 0.0
2017-Dec-02 00:00N 37°48' W 122°24'3 6.9
2017-Dec-01 23:31N 37°49' W 122°19'3 6.6
2017-Dec-01 23:01N 37°48' W 122°24'0 0.4
2017-Dec-01 22:30N 37°48' W 122°24'0 0.0
2017-Dec-01 22:01N 37°48' W 122°24'0 0.0
2017-Dec-01 21:28N 37°48' W 122°24'3 7.5
2017-Dec-01 21:00N 37°49' W 122°19'3 6.7
2017-Dec-01 20:30N 37°48' W 122°24'0 0.9
2017-Dec-01 20:01N 37°48' W 122°23'1 1.1
2017-Dec-01 19:30N 37°48' W 122°24'0 0.0
2017-Dec-01 19:00N 37°48' W 122°24'0 0.0
2017-Dec-01 18:30N 37°48' W 122°24'0 0.0
2017-Dec-01 18:00N 37°48' W 122°24'0 0.2
2017-Dec-01 17:31N 37°48' W 122°24'  
Track history (hours):
 
Tides and Currents Weather Stations Pressure Air Temp Water Temp Dewpoint Dewpoint Depression Visibility Wind Speed Wind Dir Waves Ship Positions

P/v Golden Gate

Owner: San Francisco Bar Pilots Benevolent and Protective, San Francisco, CA. More information available from US FCC via Universal Licensing System and Coast Guard Vessel Documentation Center.

Last reported at 2017-Dec-11 17:00 UTC. Time now 2017-Dec-12 21:57 UTC.
Position N 37°48' W 122°18'.

Length 21 m.

Type: Pilot. MMSI: 367370010.

Date/timePositionNaut miles runAvg speedWind from/ knotsBaromVisibWave heightAir tempDewpointWater temp
2017-Dec-11 17:00N 37°48' W 122°18'4 8.2
2017-Dec-11 16:30N 37°48' W 122°24'2 3.3
2017-Dec-11 16:00N 37°48' W 122°22'2 3.4
2017-Dec-11 15:30N 37°47' W 122°21'1 2.7
2017-Dec-11 15:00N 37°48' W 122°21'2 4.2
2017-Dec-11 14:30N 37°48' W 122°18'4 7.9
2017-Dec-11 14:00N 37°48' W 122°23'1 1.5
2017-Dec-11 13:30N 37°48' W 122°24'1 2.6
2017-Dec-11 13:01N 37°49' W 122°25'0 0.1
2017-Dec-11 12:30N 37°49' W 122°25'5 9.9
2017-Dec-11 12:01N 37°48' W 122°31'713.1
2017-Dec-11 11:27N 37°46' W 122°40'920.1
2017-Dec-11 11:00N 37°49' W 122°29'713.6
2017-Dec-11 10:31N 37°48' W 122°21'2 4.1
2017-Dec-11 10:00N 37°47' W 122°23'1 2.3
2017-Dec-11 09:30N 37°48' W 122°24'3 5.8
2017-Dec-11 09:01N 37°49' W 122°27'3 5.5
2017-Dec-11 08:30N 37°48' W 122°24'0 0.0
2017-Dec-11 08:00N 37°48' W 122°24'0 0.0
2017-Dec-11 07:30N 37°48' W 122°24'0 0.0
2017-Dec-11 07:00N 37°48' W 122°24'0 0.0
2017-Dec-11 06:30N 37°48' W 122°24'0 0.0
2017-Dec-11 06:00N 37°48' W 122°24'0 0.0
2017-Dec-11 05:30N 37°48' W 122°24'3 6.0
2017-Dec-11 05:01N 37°46' W 122°21'2 4.0
2017-Dec-11 04:31N 37°44' W 122°21'0 0.8
2017-Dec-11 04:00N 37°44' W 122°20'1 1.3
2017-Dec-11 03:31N 37°44' W 122°20'5 9.8
2017-Dec-11 03:00N 37°49' W 122°20'0 0.0
2017-Dec-11 02:30N 37°49' W 122°20'2 4.7
2017-Dec-11 02:01N 37°48' W 122°23'0 0.7
2017-Dec-11 01:30N 37°48' W 122°23'1 1.1
2017-Dec-11 01:01N 37°48' W 122°24'0 0.0
2017-Dec-11 00:31N 37°48' W 122°24'0 0.0
2017-Dec-11 00:00N 37°48' W 122°24'0 0.0
2017-Dec-10 23:30N 37°48' W 122°24'2 3.4
2017-Dec-10 23:01N 37°49' W 122°26'510.6
2017-Dec-10 22:30N 37°48' W 122°32'917.4
2017-Dec-10 22:01N 37°48' W 122°21'2 4.0
2017-Dec-10 21:30N 37°48' W 122°24'0 0.0
2017-Dec-10 21:01N 37°48' W 122°24'0 0.0
2017-Dec-10 20:30N 37°48' W 122°24'0 0.0
2017-Dec-10 20:01N 37°48' W 122°24'2 4.7
2017-Dec-10 19:30N 37°48' W 122°21'613.0
2017-Dec-10 19:01N 37°49' W 122°29'1019.4
2017-Dec-10 18:29N 37°46' W 122°41'613.1
2017-Dec-10 18:00N 37°47' W 122°33'815.4
2017-Dec-10 17:31N 37°48' W 122°24'0 0.0
2017-Dec-10 17:00N 37°48' W 122°24'0 0.0
2017-Dec-10 16:30N 37°48' W 122°24'713.5
2017-Dec-10 16:01N 37°48' W 122°32'4 8.6
2017-Dec-10 15:29N 37°46' W 122°37'1122.0
2017-Dec-10 15:00N 37°49' W 122°24'3 6.3
2017-Dec-10 14:30N 37°48' W 122°21'3 5.1
2017-Dec-10 14:01N 37°48' W 122°24'0 0.0
2017-Dec-10 13:31N 37°48' W 122°24'0 0.0
2017-Dec-10 13:00N 37°48' W 122°24'0 0.0
2017-Dec-10 12:31N 37°48' W 122°24'0 0.4
2017-Dec-10 12:00N 37°48' W 122°24'4 7.7
2017-Dec-10 11:30N 37°45' W 122°20'1 1.0
2017-Dec-10 11:01N 37°45' W 122°21'5 9.7
2017-Dec-10 10:30N 37°49' W 122°24'815.5
2017-Dec-10 10:00N 37°47' W 122°34'816.4
2017-Dec-10 09:30N 37°48' W 122°24'1 2.2
2017-Dec-10 09:00N 37°48' W 122°22'1 2.2
2017-Dec-10 08:31N 37°48' W 122°24'1 2.0
2017-Dec-10 08:00N 37°48' W 122°23'1 2.0
2017-Dec-10 07:30N 37°48' W 122°24'0 0.0
2017-Dec-10 07:01N 37°48' W 122°24'0 0.0
2017-Dec-10 06:30N 37°48' W 122°24'1 1.7
2017-Dec-10 06:00N 37°49' W 122°24'1 1.7
2017-Dec-10 05:30N 37°48' W 122°24'0 0.0
2017-Dec-10 05:00N 37°48' W 122°24'0 0.0
2017-Dec-10 04:30N 37°48' W 122°24'0 0.0
2017-Dec-10 04:00N 37°48' W 122°24'0 0.0
2017-Dec-10 03:30N 37°48' W 122°24'0 0.0
2017-Dec-10 03:00N 37°48' W 122°24'0 0.0
2017-Dec-10 02:30N 37°48' W 122°24'0 0.0
2017-Dec-10 02:00N 37°48' W 122°24'0 0.0
2017-Dec-10 01:30N 37°48' W 122°24'0 0.0
2017-Dec-10 01:00N 37°48' W 122°24'0 0.0
2017-Dec-10 00:30N 37°48' W 122°24'0 0.0
2017-Dec-10 00:00N 37°48' W 122°24'0 0.0
2017-Dec-09 23:30N 37°48' W 122°24'0 0.0
2017-Dec-09 23:00N 37°48' W 122°24'4 7.4
2017-Dec-09 22:31N 37°45' W 122°21'4 7.4
2017-Dec-09 22:00N 37°48' W 122°24'0 0.0
2017-Dec-09 21:30N 37°48' W 122°24'0 0.0
2017-Dec-09 21:00N 37°48' W 122°24'1 2.5
2017-Dec-09 20:31N 37°49' W 122°25'1 2.4
2017-Dec-09 20:00N 37°48' W 122°24'3 6.0
2017-Dec-09 19:31N 37°50' W 122°26'3 5.6
2017-Dec-09 19:01N 37°48' W 122°24'3 6.7
2017-Dec-09 18:30N 37°48' W 122°20'2 4.5
2017-Dec-09 18:00N 37°47' W 122°22'2 3.3
2017-Dec-09 17:30N 37°48' W 122°24'0 0.0
2017-Dec-09 17:00N 37°48' W 122°24'0 0.0
2017-Dec-09 16:30N 37°48' W 122°24'0 0.0
2017-Dec-09 16:00N 37°48' W 122°24'0 0.0
2017-Dec-09 15:30N 37°48' W 122°24'3 5.2
2017-Dec-09 15:00N 37°48' W 122°21'1 2.8
2017-Dec-09 14:31N 37°48' W 122°19'4 7.8
2017-Dec-09 14:00N 37°48' W 122°24'0 0.0
2017-Dec-09 13:30N 37°48' W 122°24'0 0.0
2017-Dec-09 13:00N 37°48' W 122°24'2 4.2
2017-Dec-09 12:30N 37°48' W 122°21'2 4.2
2017-Dec-09 12:00N 37°48' W 122°24'4 8.3
2017-Dec-09 11:30N 37°45' W 122°20'4 8.2
2017-Dec-09 11:00N 37°48' W 122°24'0 0.0
2017-Dec-09 10:30N 37°48' W 122°24'0 0.0
2017-Dec-09 10:00N 37°48' W 122°24'0 0.0
2017-Dec-09 09:30N 37°48' W 122°24'0 0.0
2017-Dec-09 09:00N 37°48' W 122°24'0 0.0
2017-Dec-09 08:30N 37°48' W 122°24'3 6.1
2017-Dec-09 08:00N 37°49' W 122°27'3 6.1
2017-Dec-09 07:30N 37°48' W 122°24'0 0.0
2017-Dec-09 07:00N 37°48' W 122°24'0 0.0
2017-Dec-09 06:30N 37°48' W 122°24'0 0.0
2017-Dec-09 06:00N 37°48' W 122°24'3 6.9
2017-Dec-09 05:30N 37°45' W 122°21'3 7.0
2017-Dec-09 05:00N 37°48' W 122°24'0 0.0
2017-Dec-09 04:30N 37°48' W 122°24'0 0.0
2017-Dec-09 04:00N 37°48' W 122°24'0 0.0
2017-Dec-09 03:30N 37°48' W 122°24'0 0.0
2017-Dec-09 03:00N 37°48' W 122°24'2 4.4
2017-Dec-09 02:31N 37°47' W 122°21'2 3.9
2017-Dec-09 02:00N 37°49' W 122°20'3 5.9
2017-Dec-09 01:31N 37°46' W 122°21'3 6.6
2017-Dec-09 01:00N 37°48' W 122°24'0 0.0
2017-Dec-09 00:30N 37°48' W 122°24'0 0.0
2017-Dec-09 00:01N 37°48' W 122°24'4 8.1
2017-Dec-08 23:30N 37°45' W 122°20'3 6.0
2017-Dec-08 23:01N 37°48' W 122°18'4 8.6
2017-Dec-08 22:30N 37°48' W 122°24'0 0.0
2017-Dec-08 22:00N 37°48' W 122°24'0 0.0
2017-Dec-08 21:30N 37°48' W 122°24'0 0.0
2017-Dec-08 21:00N 37°48' W 122°24'0 0.0
2017-Dec-08 20:30N 37°48' W 122°24'0 0.0
2017-Dec-08 20:00N 37°48' W 122°24'2 4.7
2017-Dec-08 19:31N 37°48' W 122°21'2 4.6
2017-Dec-08 19:00N 37°48' W 122°24'0 0.0
2017-Dec-08 18:30N 37°48' W 122°24'2 4.2
2017-Dec-08 18:01N 37°46' W 122°22'3 6.4
2017-Dec-08 17:30N 37°49' W 122°25'2 3.1
2017-Dec-08 17:00N 37°49' W 122°27'1121.9
2017-Dec-08 16:30N 37°45' W 122°40'1223.9
2017-Dec-08 16:01N 37°49' W 122°26'0 1.0
2017-Dec-08 15:30N 37°49' W 122°25'4 8.5
2017-Dec-08 15:00N 37°49' W 122°20'3 5.8
2017-Dec-08 14:31N 37°46' W 122°21'3 6.3
2017-Dec-08 14:00N 37°48' W 122°24'0 0.0
2017-Dec-08 13:31N 37°48' W 122°24'0 0.0
2017-Dec-08 13:01N 37°48' W 122°24'3 5.2
2017-Dec-08 12:30N 37°49' W 122°27'3 5.2
2017-Dec-08 12:01N 37°48' W 122°24'1019.2
2017-Dec-08 11:31N 37°46' W 122°36'2 3.8
2017-Dec-08 11:00N 37°47' W 122°34'918.5
2017-Dec-08 10:31N 37°48' W 122°22'1 2.9
2017-Dec-08 10:00N 37°48' W 122°24'0 0.0
2017-Dec-08 09:31N 37°48' W 122°24'0 0.0
2017-Dec-08 09:00N 37°48' W 122°24'2 4.6
2017-Dec-08 08:31N 37°47' W 122°22'2 4.6
2017-Dec-08 08:00N 37°48' W 122°24'713.3
2017-Dec-08 07:31N 37°48' W 122°32'3 6.2
2017-Dec-08 07:00N 37°47' W 122°36'1019.3
2017-Dec-08 06:30N 37°48' W 122°24'0 0.0
2017-Dec-08 06:00N 37°48' W 122°24'0 0.0
2017-Dec-08 05:30N 37°48' W 122°24'0 0.0
2017-Dec-08 05:00N 37°48' W 122°24'0 0.0
2017-Dec-08 04:30N 37°48' W 122°24'4 7.3
2017-Dec-08 04:01N 37°45' W 122°21'4 7.3
2017-Dec-08 03:30N 37°48' W 122°24'0 0.0
2017-Dec-08 03:00N 37°48' W 122°24'2 5.0
2017-Dec-08 02:31N 37°46' W 122°21'2 5.0
2017-Dec-08 02:00N 37°48' W 122°24'0 0.0
2017-Dec-08 01:31N 37°48' W 122°24'0 0.0
2017-Dec-08 01:01N 37°48' W 122°24'0 0.0
2017-Dec-08 00:30N 37°48' W 122°24'0 0.0
2017-Dec-08 00:01N 37°48' W 122°24'0 0.0
2017-Dec-07 23:30N 37°48' W 122°24'0 0.0
2017-Dec-07 23:00N 37°48' W 122°24'1 2.3
2017-Dec-07 22:31N 37°49' W 122°22'0 0.7
2017-Dec-07 22:01N 37°48' W 122°22'1 2.2
2017-Dec-07 21:30N 37°48' W 122°24'0 0.0
2017-Dec-07 21:00N 37°48' W 122°24'0 0.0
2017-Dec-07 20:30N 37°48' W 122°24'0 0.4
2017-Dec-07 20:01N 37°48' W 122°24'4 7.0
2017-Dec-07 19:30N 37°50' W 122°27'3 6.8
2017-Dec-07 19:00N 37°48' W 122°24'0 0.0
2017-Dec-07 18:30N 37°48' W 122°24'0 0.0
2017-Dec-07 18:00N 37°48' W 122°24'0 0.0
2017-Dec-07 17:30N 37°48' W 122°24'0 0.0
2017-Dec-07 17:00N 37°48' W 122°24'1 2.5
2017-Dec-07 16:30N 37°49' W 122°25'1 2.4
2017-Dec-07 16:00N 37°48' W 122°24'0 0.0
2017-Dec-07 15:30N 37°48' W 122°24'0 0.0
2017-Dec-07 15:00N 37°48' W 122°24'0 0.0
2017-Dec-07 14:30N 37°48' W 122°24'0 0.0
2017-Dec-07 14:00N 37°48' W 122°24'5 9.3
2017-Dec-07 13:30N 37°48' W 122°30'4 7.4
2017-Dec-07 12:56N 37°47' W 122°35'920.3
2017-Dec-07 12:30N 37°48' W 122°24'0 0.0
2017-Dec-07 12:00N 37°48' W 122°24'0 0.0
2017-Dec-07 11:30N 37°48' W 122°24'0 0.0
2017-Dec-07 11:00N 37°48' W 122°24'0 0.0
2017-Dec-07 10:30N 37°48' W 122°24'0 0.0
2017-Dec-07 10:00N 37°48' W 122°24'0 0.0
2017-Dec-07 09:30N 37°48' W 122°24'0 0.0
2017-Dec-07 09:00N 37°48' W 122°24'0 0.0
2017-Dec-07 08:30N 37°48' W 122°24'0 0.0
2017-Dec-07 08:00N 37°48' W 122°24'0 0.0
2017-Dec-07 07:30N 37°48' W 122°24'0 0.0
2017-Dec-07 07:00N 37°48' W 122°24'0 0.0
2017-Dec-07 06:30N 37°48' W 122°24'0 0.0
2017-Dec-07 06:00N 37°48' W 122°24'0 0.1
2017-Dec-07 05:31N 37°48' W 122°24'1020.8
2017-Dec-07 05:00N 37°46' W 122°37'715.0
2017-Dec-07 04:31N 37°49' W 122°28'4 7.1
2017-Dec-07 04:00N 37°48' W 122°24'1 3.0
2017-Dec-07 03:30N 37°48' W 122°22'4 7.8
2017-Dec-07 03:01N 37°49' W 122°27'3 5.1
2017-Dec-07 02:30N 37°48' W 122°24'0 0.0
2017-Dec-07 02:01N 37°48' W 122°24'0 0.0
2017-Dec-07 01:30N 37°48' W 122°24'3 6.9
2017-Dec-07 01:00N 37°48' W 122°19'3 6.9
2017-Dec-07 00:30N 37°48' W 122°24'510.8
2017-Dec-07 00:00N 37°44' W 122°20'510.0
2017-Dec-06 23:30N 37°49' W 122°20'3 6.6
2017-Dec-06 23:01N 37°48' W 122°24'2 4.1
2017-Dec-06 22:30N 37°46' W 122°22'2 4.2
2017-Dec-06 22:01N 37°48' W 122°24'0 0.0
2017-Dec-06 21:31N 37°48' W 122°24'5 9.8
2017-Dec-06 21:00N 37°49' W 122°30'  
2017-Dec-04 10:31N 37°48' W 122°24'0 0.0
2017-Dec-04 10:00N 37°48' W 122°24'0 0.0
2017-Dec-04 09:31N 37°48' W 122°24'0 0.0
2017-Dec-04 09:00N 37°48' W 122°24'4 8.3
2017-Dec-04 08:31N 37°44' W 122°21'4 7.7
2017-Dec-04 08:01N 37°48' W 122°22'3 5.0
2017-Dec-04 07:30N 37°46' W 122°21'3 6.1
2017-Dec-04 07:00N 37°48' W 122°24'2 4.7
2017-Dec-04 06:30N 37°47' W 122°21'2 4.7
2017-Dec-04 06:00N 37°48' W 122°24'0 0.0
2017-Dec-04 05:30N 37°48' W 122°24'0 0.0
2017-Dec-04 05:00N 37°48' W 122°24'0 0.0
2017-Dec-04 04:30N 37°48' W 122°24'1 2.4
2017-Dec-04 04:00N 37°49' W 122°25'1 2.4
2017-Dec-04 03:30N 37°48' W 122°24'0 0.0
2017-Dec-04 03:00N 37°48' W 122°24'0 0.0
2017-Dec-04 02:30N 37°48' W 122°24'0 0.0
2017-Dec-04 02:00N 37°48' W 122°24'4 8.4
2017-Dec-04 01:31N 37°45' W 122°20'4 8.4
2017-Dec-04 01:00N 37°48' W 122°24'510.6
2017-Dec-04 00:31N 37°44' W 122°20'510.5
2017-Dec-04 00:00N 37°48' W 122°24'0 0.0
2017-Dec-03 23:30N 37°48' W 122°24'0 0.0
2017-Dec-03 23:00N 37°48' W 122°24'0 0.0
2017-Dec-03 22:30N 37°48' W 122°24'0 0.0
2017-Dec-03 22:00N 37°48' W 122°24'0 0.0
2017-Dec-03 21:30N 37°48' W 122°24'0 0.8
2017-Dec-03 21:01N 37°48' W 122°23'1 2.1
2017-Dec-03 20:30N 37°48' W 122°22'0 0.8
2017-Dec-03 20:01N 37°47' W 122°22'1 2.6
2017-Dec-03 19:31N 37°46' W 122°21'3 6.6
2017-Dec-03 19:01N 37°49' W 122°24'1 2.1
2017-Dec-03 18:23N 37°48' W 122°26'411.3
2017-Dec-03 18:00N 37°46' W 122°21'3 5.4
2017-Dec-03 17:30N 37°48' W 122°24'0 0.0
2017-Dec-03 17:00N 37°48' W 122°24'0 0.0
2017-Dec-03 16:30N 37°48' W 122°24'3 6.3
2017-Dec-03 16:00N 37°49' W 122°20'1 1.6
2017-Dec-03 15:30N 37°48' W 122°20'2 4.9
2017-Dec-03 15:01N 37°47' W 122°22'2 3.1
2017-Dec-03 14:31N 37°48' W 122°21'3 7.0
2017-Dec-03 14:00N 37°49' W 122°25'3 5.0
2017-Dec-03 13:30N 37°48' W 122°22'2 4.0
2017-Dec-03 13:01N 37°46' W 122°22'1 2.9
2017-Dec-03 12:31N 37°45' W 122°20'3 6.7
2017-Dec-03 12:01N 37°48' W 122°23'2 4.7
2017-Dec-03 11:31N 37°46' W 122°22'3 5.3
2017-Dec-03 11:00N 37°48' W 122°24'0 0.0
2017-Dec-03 10:31N 37°48' W 122°24'3 6.2
2017-Dec-03 10:01N 37°46' W 122°21'3 6.1
2017-Dec-03 09:30N 37°48' W 122°24'4 7.1
2017-Dec-03 09:00N 37°46' W 122°20'2 4.9
2017-Dec-03 08:30N 37°47' W 122°23'1 2.1
2017-Dec-03 08:01N 37°48' W 122°24'5 9.5
2017-Dec-03 07:31N 37°44' W 122°20'1 2.0
2017-Dec-03 07:00N 37°45' W 122°20'4 8.8
2017-Dec-03 06:30N 37°49' W 122°24'1 1.0
2017-Dec-03 06:01N 37°48' W 122°24'0 0.0
2017-Dec-03 05:30N 37°48' W 122°24'0 0.0
2017-Dec-03 05:00N 37°48' W 122°24'3 6.5
2017-Dec-03 04:30N 37°45' W 122°21'3 5.3
2017-Dec-03 04:01N 37°48' W 122°23'1 1.9
2017-Dec-03 03:31N 37°48' W 122°24'0 0.0
2017-Dec-03 03:00N 37°48' W 122°24'1 2.7
2017-Dec-03 02:31N 37°49' W 122°24'2 4.0
2017-Dec-03 02:00N 37°48' W 122°22'3 6.4
2017-Dec-03 01:30N 37°45' W 122°21'1 1.1
2017-Dec-03 01:00N 37°45' W 122°21'4 8.4
2017-Dec-03 00:31N 37°48' W 122°23'1 1.1
2017-Dec-03 00:00N 37°48' W 122°24'1 1.2
2017-Dec-02 23:30N 37°48' W 122°23'1 1.2
2017-Dec-02 23:00N 37°48' W 122°24'0 0.0
2017-Dec-02 22:31N 37°48' W 122°24'0 0.0
2017-Dec-02 22:00N 37°48' W 122°24'0 0.0
2017-Dec-02 21:30N 37°48' W 122°24'0 0.0
2017-Dec-02 21:00N 37°48' W 122°24'2 3.1
2017-Dec-02 20:31N 37°48' W 122°22'3 5.3
2017-Dec-02 20:01N 37°46' W 122°22'1 2.3
2017-Dec-02 19:31N 37°45' W 122°21'5 9.4
2017-Dec-02 19:00N 37°49' W 122°24'1 1.8
2017-Dec-02 18:27N 37°49' W 122°25'613.0
2017-Dec-02 18:00N 37°46' W 122°18'1 1.1
2017-Dec-02 17:31N 37°46' W 122°19'2 4.7
2017-Dec-02 17:00N 37°49' W 122°20'4 8.0
2017-Dec-02 16:31N 37°45' W 122°20'3 6.7
2017-Dec-02 16:01N 37°48' W 122°20'611.6
2017-Dec-02 15:31N 37°49' W 122°27'3 5.9
2017-Dec-02 15:00N 37°48' W 122°24'2 3.5
2017-Dec-02 14:31N 37°48' W 122°22'3 5.1
2017-Dec-02 14:00N 37°48' W 122°18'0 0.9
2017-Dec-02 13:30N 37°48' W 122°18'0 0.8
2017-Dec-02 13:00N 37°48' W 122°18'5 9.8
2017-Dec-02 12:31N 37°49' W 122°24'2 4.5
2017-Dec-02 12:00N 37°49' W 122°27'1121.9
2017-Dec-02 11:29N 37°44' W 122°41'1020.0
2017-Dec-02 11:01N 37°49' W 122°30'5 9.3
2017-Dec-02 10:30N 37°48' W 122°24'0 0.0
2017-Dec-02 10:00N 37°48' W 122°24'0 0.0
2017-Dec-02 09:30N 37°48' W 122°24'2 4.6
2017-Dec-02 09:01N 37°46' W 122°22'1 1.8
2017-Dec-02 08:30N 37°46' W 122°21'3 6.3
2017-Dec-02 08:00N 37°48' W 122°24'0 0.0
2017-Dec-02 07:30N 37°48' W 122°24'0 0.0
2017-Dec-02 07:00N 37°48' W 122°24'0 0.0
2017-Dec-02 06:30N 37°48' W 122°24'0 0.0
2017-Dec-02 06:00N 37°48' W 122°24'0 0.0
2017-Dec-02 05:30N 37°48' W 122°24'3 5.8
2017-Dec-02 05:00N 37°49' W 122°20'1 2.7
2017-Dec-02 04:31N 37°47' W 122°21'3 5.1
2017-Dec-02 04:01N 37°48' W 122°24'5 9.2
2017-Dec-02 03:30N 37°44' W 122°21'4 8.0
2017-Dec-02 03:00N 37°48' W 122°21'1 2.2
2017-Dec-02 02:31N 37°48' W 122°20'2 4.3
2017-Dec-02 02:00N 37°46' W 122°21'2 3.4
2017-Dec-02 01:31N 37°47' W 122°21'2 3.9
2017-Dec-02 01:00N 37°48' W 122°24'0 0.0
2017-Dec-02 00:30N 37°48' W 122°24'0 0.0
2017-Dec-02 00:00N 37°48' W 122°24'3 6.9
2017-Dec-01 23:31N 37°49' W 122°19'3 6.6
2017-Dec-01 23:01N 37°48' W 122°24'0 0.4
2017-Dec-01 22:30N 37°48' W 122°24'0 0.0
2017-Dec-01 22:01N 37°48' W 122°24'0 0.0
2017-Dec-01 21:28N 37°48' W 122°24'3 7.5
2017-Dec-01 21:00N 37°49' W 122°19'3 6.7
2017-Dec-01 20:30N 37°48' W 122°24'0 0.9
2017-Dec-01 20:01N 37°48' W 122°23'1 1.1
2017-Dec-01 19:30N 37°48' W 122°24'0 0.0
2017-Dec-01 19:00N 37°48' W 122°24'0 0.0
2017-Dec-01 18:30N 37°48' W 122°24'0 0.0
2017-Dec-01 18:00N 37°48' W 122°24'0 0.2
2017-Dec-01 17:31N 37°48' W 122°24'  

Dump ship's entire track history